sensor_id;sensor_type;location;lat;lon;timestamp;pressure;altitude;pressure_sealevel;temperature
62611;BMP280;48683;48.084;17.272;2023-08-01T00:01:01;99646.72;;;21.68
62611;BMP280;48683;48.084;17.272;2023-08-01T00:03:26;99641.44;;;21.64
62611;BMP280;48683;48.084;17.272;2023-08-01T00:05:52;99648.13;;;21.63
62611;BMP280;48683;48.084;17.272;2023-08-01T00:08:17;99643.16;;;21.62
62611;BMP280;48683;48.084;17.272;2023-08-01T00:10:42;99644.13;;;21.59
62611;BMP280;48683;48.084;17.272;2023-08-01T00:13:07;99638.19;;;21.46
62611;BMP280;48683;48.084;17.272;2023-08-01T00:15:33;99632.94;;;21.27
62611;BMP280;48683;48.084;17.272;2023-08-01T00:17:58;99631.81;;;21.19
62611;BMP280;48683;48.084;17.272;2023-08-01T00:20:23;99626.44;;;21.25
62611;BMP280;48683;48.084;17.272;2023-08-01T00:22:48;99626.44;;;21.25
62611;BMP280;48683;48.084;17.272;2023-08-01T00:25:14;99620.34;;;21.15
62611;BMP280;48683;48.084;17.272;2023-08-01T00:27:39;99627.75;;;21.15
62611;BMP280;48683;48.084;17.272;2023-08-01T00:30:05;99621.53;;;21.14
62611;BMP280;48683;48.084;17.272;2023-08-01T00:32:30;99624.44;;;21.11
62611;BMP280;48683;48.084;17.272;2023-08-01T00:34:55;99618.81;;;21.14
62611;BMP280;48683;48.084;17.272;2023-08-01T00:37:21;99615.31;;;20.99
62611;BMP280;48683;48.084;17.272;2023-08-01T00:39:46;99623.69;;;20.96
62611;BMP280;48683;48.084;17.272;2023-08-01T00:42:12;99612.00;;;20.95
62611;BMP280;48683;48.084;17.272;2023-08-01T00:44:47;99604.09;;;20.82
62611;BMP280;48683;48.084;17.272;2023-08-01T00:47:13;99601.47;;;21.03
62611;BMP280;48683;48.084;17.272;2023-08-01T00:49:39;99596.78;;;21.03
62611;BMP280;48683;48.084;17.272;2023-08-01T00:52:04;99586.25;;;20.81
62611;BMP280;48683;48.084;17.272;2023-08-01T00:54:30;99578.97;;;20.78
62611;BMP280;48683;48.084;17.272;2023-08-01T00:57:00;99580.97;;;20.78
62611;BMP280;48683;48.084;17.272;2023-08-01T00:59:26;99571.47;;;20.73
62611;BMP280;48683;48.084;17.272;2023-08-01T01:01:51;99570.88;;;20.55
62611;BMP280;48683;48.084;17.272;2023-08-01T01:04:16;99565.91;;;20.53
62611;BMP280;48683;48.084;17.272;2023-08-01T01:06:45;99567.47;;;20.45
62611;BMP280;48683;48.084;17.272;2023-08-01T01:09:19;99565.97;;;20.44
62611;BMP280;48683;48.084;17.272;2023-08-01T01:11:44;99554.78;;;20.42
62611;BMP280;48683;48.084;17.272;2023-08-01T01:14:10;99553.16;;;20.35
62611;BMP280;48683;48.084;17.272;2023-08-01T01:16:35;99549.00;;;20.25
62611;BMP280;48683;48.084;17.272;2023-08-01T01:19:00;99552.47;;;20.26
62611;BMP280;48683;48.084;17.272;2023-08-01T01:21:26;99558.84;;;20.23
62611;BMP280;48683;48.084;17.272;2023-08-01T01:23:51;99544.13;;;20.29
62611;BMP280;48683;48.084;17.272;2023-08-01T01:26:16;99548.88;;;20.20
62611;BMP280;48683;48.084;17.272;2023-08-01T01:28:45;99545.56;;;20.16
62611;BMP280;48683;48.084;17.272;2023-08-01T01:31:11;99539.84;;;20.14
62611;BMP280;48683;48.084;17.272;2023-08-01T01:33:36;99532.34;;;20.23
62611;BMP280;48683;48.084;17.272;2023-08-01T01:36:02;99539.25;;;20.33
62611;BMP280;48683;48.084;17.272;2023-08-01T01:38:27;99534.22;;;20.17
62611;BMP280;48683;48.084;17.272;2023-08-01T01:40:52;99530.78;;;20.08
62611;BMP280;48683;48.084;17.272;2023-08-01T01:43:17;99528.56;;;20.06
62611;BMP280;48683;48.084;17.272;2023-08-01T01:45:43;99530.25;;;20.04
62611;BMP280;48683;48.084;17.272;2023-08-01T01:48:08;99526.19;;;19.99
62611;BMP280;48683;48.084;17.272;2023-08-01T01:50:33;99520.78;;;19.90
62611;BMP280;48683;48.084;17.272;2023-08-01T01:52:59;99523.06;;;19.92
62611;BMP280;48683;48.084;17.272;2023-08-01T01:55:24;99530.16;;;19.89
62611;BMP280;48683;48.084;17.272;2023-08-01T01:57:49;99520.78;;;19.90
62611;BMP280;48683;48.084;17.272;2023-08-01T02:00:15;99519.00;;;19.87
62611;BMP280;48683;48.084;17.272;2023-08-01T02:02:40;99518.78;;;19.76
62611;BMP280;48683;48.084;17.272;2023-08-01T02:05:05;99510.59;;;19.52
62611;BMP280;48683;48.084;17.272;2023-08-01T02:07:30;99516.34;;;19.78
62611;BMP280;48683;48.084;17.272;2023-08-01T02:09:56;99514.59;;;19.89
62611;BMP280;48683;48.084;17.272;2023-08-01T02:12:22;99518.59;;;19.79
62611;BMP280;48683;48.084;17.272;2023-08-01T02:14:47;99521.69;;;19.72
62611;BMP280;48683;48.084;17.272;2023-08-01T02:17:12;99513.78;;;19.74
62611;BMP280;48683;48.084;17.272;2023-08-01T02:19:37;99514.25;;;19.73
62611;BMP280;48683;48.084;17.272;2023-08-01T02:22:02;99504.75;;;19.68
62611;BMP280;48683;48.084;17.272;2023-08-01T02:24:28;99511.19;;;19.56
62611;BMP280;48683;48.084;17.272;2023-08-01T02:26:53;99511.22;;;19.47
62611;BMP280;48683;48.084;17.272;2023-08-01T02:29:18;99503.06;;;19.47
62611;BMP280;48683;48.084;17.272;2023-08-01T02:31:43;99505.03;;;19.47
62611;BMP280;48683;48.084;17.272;2023-08-01T02:34:08;99507.75;;;19.47
62611;BMP280;48683;48.084;17.272;2023-08-01T02:36:34;99502.13;;;19.50
62611;BMP280;48683;48.084;17.272;2023-08-01T02:38:59;99492.00;;;19.51
62611;BMP280;48683;48.084;17.272;2023-08-01T02:41:24;99491.59;;;19.43
62611;BMP280;48683;48.084;17.272;2023-08-01T02:43:49;99493.09;;;19.44
62611;BMP280;48683;48.084;17.272;2023-08-01T02:46:15;99493.69;;;19.48
62611;BMP280;48683;48.084;17.272;2023-08-01T02:48:40;99486.69;;;19.56
62611;BMP280;48683;48.084;17.272;2023-08-01T02:51:05;99476.06;;;19.58
62611;BMP280;48683;48.084;17.272;2023-08-01T02:53:34;99460.91;;;19.66
62611;BMP280;48683;48.084;17.272;2023-08-01T02:55:59;99460.63;;;19.64
62611;BMP280;48683;48.084;17.272;2023-08-01T02:58:24;99456.03;;;19.47
62611;BMP280;48683;48.084;17.272;2023-08-01T03:00:49;99459.25;;;19.36
62611;BMP280;48683;48.084;17.272;2023-08-01T03:03:15;99471.03;;;19.42
62611;BMP280;48683;48.084;17.272;2023-08-01T03:05:40;99464.81;;;19.41
62611;BMP280;48683;48.084;17.272;2023-08-01T03:08:05;99469.69;;;19.37
62611;BMP280;48683;48.084;17.272;2023-08-01T03:10:30;99467.09;;;19.10
62611;BMP280;48683;48.084;17.272;2023-08-01T03:12:56;99473.00;;;19.09
62611;BMP280;48683;48.084;17.272;2023-08-01T03:15:21;99463.97;;;18.93
62611;BMP280;48683;48.084;17.272;2023-08-01T03:17:46;99473.59;;;19.04
62611;BMP280;48683;48.084;17.272;2023-08-01T03:20:11;99472.47;;;19.19
62611;BMP280;48683;48.084;17.272;2023-08-01T03:22:38;99465.72;;;19.38
62611;BMP280;48683;48.084;17.272;2023-08-01T03:25:03;99447.59;;;19.45
62611;BMP280;48683;48.084;17.272;2023-08-01T03:27:32;99461.91;;;19.21
62611;BMP280;48683;48.084;17.272;2023-08-01T03:29:57;99472.78;;;19.21
62611;BMP280;48683;48.084;17.272;2023-08-01T03:32:22;99466.44;;;19.15
62611;BMP280;48683;48.084;17.272;2023-08-01T03:34:47;99468.38;;;19.24
62611;BMP280;48683;48.084;17.272;2023-08-01T03:37:13;99475.03;;;19.23
62611;BMP280;48683;48.084;17.272;2023-08-01T03:39:38;99471.72;;;19.19
62611;BMP280;48683;48.084;17.272;2023-08-01T03:42:04;99467.03;;;19.19
62611;BMP280;48683;48.084;17.272;2023-08-01T03:44:29;99476.91;;;19.08
62611;BMP280;48683;48.084;17.272;2023-08-01T03:46:54;99470.47;;;18.96
62611;BMP280;48683;48.084;17.272;2023-08-01T03:49:19;99472.75;;;18.88
62611;BMP280;48683;48.084;17.272;2023-08-01T03:51:44;99478.50;;;18.90
62611;BMP280;48683;48.084;17.272;2023-08-01T03:54:10;99471.47;;;19.08
62611;BMP280;48683;48.084;17.272;2023-08-01T03:56:35;99453.81;;;19.03
62611;BMP280;48683;48.084;17.272;2023-08-01T03:59:00;99453.22;;;18.99
62611;BMP280;48683;48.084;17.272;2023-08-01T04:01:25;99446.66;;;18.82
62611;BMP280;48683;48.084;17.272;2023-08-01T04:03:51;99441.97;;;18.82
62611;BMP280;48683;48.084;17.272;2023-08-01T04:06:16;99455.75;;;18.79
62611;BMP280;48683;48.084;17.272;2023-08-01T04:08:41;99458.03;;;18.71
62611;BMP280;48683;48.084;17.272;2023-08-01T04:11:06;99464.94;;;18.72
62611;BMP280;48683;48.084;17.272;2023-08-01T04:13:31;99468.09;;;18.80
62611;BMP280;48683;48.084;17.272;2023-08-01T04:15:57;99478.78;;;18.92
62611;BMP280;48683;48.084;17.272;2023-08-01T04:18:22;99464.84;;;19.00
62611;BMP280;48683;48.084;17.272;2023-08-01T04:20:47;99465.63;;;18.91
62611;BMP280;48683;48.084;17.272;2023-08-01T04:23:12;99467.47;;;18.85
62611;BMP280;48683;48.084;17.272;2023-08-01T04:25:39;99466.59;;;18.79
62611;BMP280;48683;48.084;17.272;2023-08-01T04:28:04;99457.56;;;18.64
62611;BMP280;48683;48.084;17.272;2023-08-01T04:30:29;99466.78;;;18.66
62611;BMP280;48683;48.084;17.272;2023-08-01T04:32:55;99465.28;;;18.65
62611;BMP280;48683;48.084;17.272;2023-08-01T04:35:20;99475.44;;;18.56
62611;BMP280;48683;48.084;17.272;2023-08-01T04:37:45;99473.72;;;18.49
62611;BMP280;48683;48.084;17.272;2023-08-01T04:40:10;99482.63;;;18.49
62611;BMP280;48683;48.084;17.272;2023-08-01T04:42:35;99479.03;;;18.53
62611;BMP280;48683;48.084;17.272;2023-08-01T04:45:01;99479.78;;;18.53
62611;BMP280;48683;48.084;17.272;2023-08-01T04:47:26;99481.59;;;18.65
62611;BMP280;48683;48.084;17.272;2023-08-01T04:49:51;99483.53;;;18.74
62611;BMP280;48683;48.084;17.272;2023-08-01T04:52:16;99474.28;;;18.80
62611;BMP280;48683;48.084;17.272;2023-08-01T04:54:41;99472.47;;;18.86
62611;BMP280;48683;48.084;17.272;2023-08-01T04:57:07;99471.84;;;18.91
62611;BMP280;48683;48.084;17.272;2023-08-01T04:59:32;99462.78;;;18.94
62611;BMP280;48683;48.084;17.272;2023-08-01T05:01:57;99461.84;;;18.98
62611;BMP280;48683;48.084;17.272;2023-08-01T05:04:22;99466.97;;;19.05
62611;BMP280;48683;48.084;17.272;2023-08-01T05:06:48;99472.69;;;19.07
62611;BMP280;48683;48.084;17.272;2023-08-01T05:09:13;99465.25;;;19.16
62611;BMP280;48683;48.084;17.272;2023-08-01T05:11:38;99464.50;;;19.16
62611;BMP280;48683;48.084;17.272;2023-08-01T05:14:03;99467.22;;;19.16
62611;BMP280;48683;48.084;17.272;2023-08-01T05:16:28;99469.72;;;19.28
62611;BMP280;48683;48.084;17.272;2023-08-01T05:18:54;99462.59;;;19.31
62611;BMP280;48683;48.084;17.272;2023-08-01T05:21:19;99469.84;;;19.34
62611;BMP280;48683;48.084;17.272;2023-08-01T05:23:44;99468.75;;;19.40
62611;BMP280;48683;48.084;17.272;2023-08-01T05:26:09;99472.66;;;19.49
62611;BMP280;48683;48.084;17.272;2023-08-01T05:28:35;99460.44;;;19.44
62611;BMP280;48683;48.084;17.272;2023-08-01T05:31:00;99465.09;;;19.53
62611;BMP280;48683;48.084;17.272;2023-08-01T05:33:25;99464.84;;;19.65
62611;BMP280;48683;48.084;17.272;2023-08-01T05:35:50;99468.63;;;19.68
62611;BMP280;48683;48.084;17.272;2023-08-01T05:38:15;99470.97;;;19.75
62611;BMP280;48683;48.084;17.272;2023-08-01T05:40:41;99464.16;;;19.79
62611;BMP280;48683;48.084;17.272;2023-08-01T05:43:06;99472.72;;;19.87
62611;BMP280;48683;48.084;17.272;2023-08-01T05:45:33;99465.22;;;19.97
62611;BMP280;48683;48.084;17.272;2023-08-01T05:47:58;99467.59;;;20.04
62611;BMP280;48683;48.084;17.272;2023-08-01T05:50:24;99463.59;;;20.28
62611;BMP280;48683;48.084;17.272;2023-08-01T05:52:49;99469.66;;;20.62
62611;BMP280;48683;48.084;17.272;2023-08-01T05:55:14;99454.69;;;20.72
62611;BMP280;48683;48.084;17.272;2023-08-01T05:57:39;99457.75;;;20.94
62611;BMP280;48683;48.084;17.272;2023-08-01T06:00:05;99461.78;;;20.99
62611;BMP280;48683;48.084;17.272;2023-08-01T06:02:30;99464.47;;;20.93
62611;BMP280;48683;48.084;17.272;2023-08-01T06:04:55;99453.50;;;21.08
62611;BMP280;48683;48.084;17.272;2023-08-01T06:07:20;99444.34;;;21.25
62611;BMP280;48683;48.084;17.272;2023-08-01T06:09:48;99442.72;;;21.34
62611;BMP280;48683;48.084;17.272;2023-08-01T06:12:13;99431.81;;;21.34
62611;BMP280;48683;48.084;17.272;2023-08-01T06:14:38;99433.47;;;21.46
62611;BMP280;48683;48.084;17.272;2023-08-01T06:17:04;99436.06;;;21.55
62611;BMP280;48683;48.084;17.272;2023-08-01T06:19:29;99425.53;;;21.48
62611;BMP280;48683;48.084;17.272;2023-08-01T06:21:55;99427.59;;;21.53
62611;BMP280;48683;48.084;17.272;2023-08-01T06:24:20;99427.47;;;21.62
62611;BMP280;48683;48.084;17.272;2023-08-01T06:26:45;99422.75;;;21.62
62611;BMP280;48683;48.084;17.272;2023-08-01T06:29:10;99413.47;;;21.74
62611;BMP280;48683;48.084;17.272;2023-08-01T06:31:35;99411.81;;;21.83
62611;BMP280;48683;48.084;17.272;2023-08-01T06:34:00;99408.38;;;21.88
62611;BMP280;48683;48.084;17.272;2023-08-01T06:36:26;99403.56;;;21.97
62611;BMP280;48683;48.084;17.272;2023-08-01T06:38:51;99405.31;;;22.00
62611;BMP280;48683;48.084;17.272;2023-08-01T06:41:16;99406.97;;;22.18
62611;BMP280;48683;48.084;17.272;2023-08-01T06:43:41;99404.38;;;22.35
62611;BMP280;48683;48.084;17.272;2023-08-01T06:46:06;99409.31;;;22.56
62611;BMP280;48683;48.084;17.272;2023-08-01T06:48:32;99407.53;;;22.85
62611;BMP280;48683;48.084;17.272;2023-08-01T06:51:00;99402.69;;;23.05
62611;BMP280;48683;48.084;17.272;2023-08-01T06:53:25;99401.97;;;23.58
62611;BMP280;48683;48.084;17.272;2023-08-01T06:55:51;99398.28;;;23.78
62611;BMP280;48683;48.084;17.272;2023-08-01T06:58:16;99394.09;;;23.88
62611;BMP280;48683;48.084;17.272;2023-08-01T07:00:41;99392.09;;;23.89
62611;BMP280;48683;48.084;17.272;2023-08-01T07:03:06;99384.09;;;23.74
62611;BMP280;48683;48.084;17.272;2023-08-01T07:05:32;99381.16;;;24.05
62611;BMP280;48683;48.084;17.272;2023-08-01T07:07:57;99380.72;;;24.24
62611;BMP280;48683;48.084;17.272;2023-08-01T07:10:23;99379.22;;;24.34
62611;BMP280;48683;48.084;17.272;2023-08-01T07:12:48;99378.22;;;24.37
62611;BMP280;48683;48.084;17.272;2023-08-01T07:15:14;99377.22;;;24.34
62611;BMP280;48683;48.084;17.272;2023-08-01T07:17:39;99374.22;;;24.21
62611;BMP280;48683;48.084;17.272;2023-08-01T07:20:04;99375.19;;;24.12
62611;BMP280;48683;48.084;17.272;2023-08-01T07:22:30;99375.19;;;23.96
62611;BMP280;48683;48.084;17.272;2023-08-01T07:24:55;99366.47;;;24.03
62611;BMP280;48683;48.084;17.272;2023-08-01T07:27:20;99372.94;;;24.00
62611;BMP280;48683;48.084;17.272;2023-08-01T07:29:46;99367.44;;;23.89
62611;BMP280;48683;48.084;17.272;2023-08-01T07:32:11;99371.19;;;24.02
62611;BMP280;48683;48.084;17.272;2023-08-01T07:34:36;99372.19;;;24.10
62611;BMP280;48683;48.084;17.272;2023-08-01T07:37:02;99368.97;;;24.12
62611;BMP280;48683;48.084;17.272;2023-08-01T07:39:27;99369.25;;;24.25
62611;BMP280;48683;48.084;17.272;2023-08-01T07:41:52;99371.97;;;24.25
62611;BMP280;48683;48.084;17.272;2023-08-01T07:44:17;99367.75;;;24.30
62611;BMP280;48683;48.084;17.272;2023-08-01T07:46:42;99368.50;;;24.36
62611;BMP280;48683;48.084;17.272;2023-08-01T07:49:08;99365.53;;;24.39
62611;BMP280;48683;48.084;17.272;2023-08-01T07:51:33;99371.25;;;24.41
62611;BMP280;48683;48.084;17.272;2023-08-01T07:53:59;99371.50;;;24.54
62611;BMP280;48683;48.084;17.272;2023-08-01T07:56:24;99372.22;;;24.44
62611;BMP280;48683;48.084;17.272;2023-08-01T07:58:49;99372.22;;;24.66
62611;BMP280;48683;48.084;17.272;2023-08-01T08:01:15;99372.72;;;24.65
62611;BMP280;48683;48.084;17.272;2023-08-01T08:03:40;99372.19;;;24.72
62611;BMP280;48683;48.084;17.272;2023-08-01T08:06:05;99377.72;;;24.66
62611;BMP280;48683;48.084;17.272;2023-08-01T08:08:31;99374.69;;;24.81
62611;BMP280;48683;48.084;17.272;2023-08-01T08:10:58;99378.94;;;24.65
62611;BMP280;48683;48.084;17.272;2023-08-01T08:13:23;99382.44;;;24.66
62611;BMP280;48683;48.084;17.272;2023-08-01T08:15:50;99391.16;;;24.70
62611;BMP280;48683;48.084;17.272;2023-08-01T08:18:15;99389.44;;;24.67
62611;BMP280;48683;48.084;17.272;2023-08-01T08:20:41;99390.41;;;24.64
62611;BMP280;48683;48.084;17.272;2023-08-01T08:23:07;99392.16;;;24.78
62611;BMP280;48683;48.084;17.272;2023-08-01T08:25:33;99395.41;;;24.87
62611;BMP280;48683;48.084;17.272;2023-08-01T08:27:58;99398.16;;;24.37
62611;BMP280;48683;48.084;17.272;2023-08-01T08:30:23;99397.09;;;24.12
62611;BMP280;48683;48.084;17.272;2023-08-01T08:32:49;99400.06;;;23.87
62611;BMP280;48683;48.084;17.272;2023-08-01T08:35:14;99403.75;;;23.61
62611;BMP280;48683;48.084;17.272;2023-08-01T08:37:40;99396.84;;;23.29
62611;BMP280;48683;48.084;17.272;2023-08-01T08:40:05;99400.00;;;23.11
62611;BMP280;48683;48.084;17.272;2023-08-01T08:42:32;99389.94;;;22.97
62611;BMP280;48683;48.084;17.272;2023-08-01T08:44:58;99393.91;;;22.96
62611;BMP280;48683;48.084;17.272;2023-08-01T08:47:26;99393.19;;;22.95
62611;BMP280;48683;48.084;17.272;2023-08-01T08:49:52;99388.19;;;22.94
62611;BMP280;48683;48.084;17.272;2023-08-01T08:52:20;99379.84;;;23.14
62611;BMP280;48683;48.084;17.272;2023-08-01T08:54:45;99384.59;;;23.13
62611;BMP280;48683;48.084;17.272;2023-08-01T08:57:11;99389.72;;;23.00
62611;BMP280;48683;48.084;17.272;2023-08-01T08:59:37;99389.00;;;23.05
62611;BMP280;48683;48.084;17.272;2023-08-01T09:02:02;99396.00;;;23.12
62611;BMP280;48683;48.084;17.272;2023-08-01T09:04:28;99388.75;;;23.03
62611;BMP280;48683;48.084;17.272;2023-08-01T09:06:55;99396.88;;;22.87
62611;BMP280;48683;48.084;17.272;2023-08-01T09:09:21;99398.78;;;22.81
62611;BMP280;48683;48.084;17.272;2023-08-01T09:11:48;99395.44;;;22.97
62611;BMP280;48683;48.084;17.272;2023-08-01T09:14:14;99386.97;;;23.00
62611;BMP280;48683;48.084;17.272;2023-08-01T09:16:40;99384.47;;;22.97
62611;BMP280;48683;48.084;17.272;2023-08-01T09:19:05;99390.19;;;22.93
62611;BMP280;48683;48.084;17.272;2023-08-01T09:21:31;99391.41;;;22.92
62611;BMP280;48683;48.084;17.272;2023-08-01T09:23:58;99386.69;;;22.93
62611;BMP280;48683;48.084;17.272;2023-08-01T09:26:23;99388.16;;;22.88
62611;BMP280;48683;48.084;17.272;2023-08-01T09:28:55;99390.19;;;22.93
62611;BMP280;48683;48.084;17.272;2023-08-01T09:31:25;99390.75;;;23.03
62611;BMP280;48683;48.084;17.272;2023-08-01T09:33:50;99386.44;;;22.91
62611;BMP280;48683;48.084;17.272;2023-08-01T09:36:20;99391.69;;;22.94
62611;BMP280;48683;48.084;17.272;2023-08-01T09:38:45;99386.69;;;22.93
62611;BMP280;48683;48.084;17.272;2023-08-01T09:41:16;99378.75;;;22.95
62611;BMP280;48683;48.084;17.272;2023-08-01T09:43:42;99381.97;;;22.88
62611;BMP280;48683;48.084;17.272;2023-08-01T09:46:07;99379.66;;;22.81
62611;BMP280;48683;48.084;17.272;2023-08-01T09:48:32;99383.22;;;22.92
62611;BMP280;48683;48.084;17.272;2023-08-01T09:51:10;99383.47;;;22.94
62611;BMP280;48683;48.084;17.272;2023-08-01T09:53:46;99377.50;;;22.96
62611;BMP280;48683;48.084;17.272;2023-08-01T09:56:12;99376.28;;;22.97
62611;BMP280;48683;48.084;17.272;2023-08-01T09:58:40;99374.75;;;22.90
62611;BMP280;48683;48.084;17.272;2023-08-01T10:01:06;99369.50;;;22.87
62611;BMP280;48683;48.084;17.272;2023-08-01T10:03:32;99376.97;;;22.92
62611;BMP280;48683;48.084;17.272;2023-08-01T10:05:57;99374.06;;;23.01
62611;BMP280;48683;48.084;17.272;2023-08-01T10:08:23;99367.59;;;22.98
62611;BMP280;48683;48.084;17.272;2023-08-01T10:10:48;99371.84;;;23.05
62611;BMP280;48683;48.084;17.272;2023-08-01T10:13:14;99373.88;;;23.15
62611;BMP280;48683;48.084;17.272;2023-08-01T10:15:40;99366.13;;;23.08
62611;BMP280;48683;48.084;17.272;2023-08-01T10:18:05;99366.34;;;22.99
62611;BMP280;48683;48.084;17.272;2023-08-01T10:20:30;99354.88;;;22.95
62611;BMP280;48683;48.084;17.272;2023-08-01T10:22:56;99346.41;;;22.88
62611;BMP280;48683;48.084;17.272;2023-08-01T10:25:21;99353.63;;;22.96
62611;BMP280;48683;48.084;17.272;2023-08-01T10:27:57;99352.88;;;22.96
62611;BMP280;48683;48.084;17.272;2023-08-01T10:30:25;99354.38;;;22.97
62611;BMP280;48683;48.084;17.272;2023-08-01T10:32:54;99361.88;;;23.02
62611;BMP280;48683;48.084;17.272;2023-08-01T10:35:19;99353.91;;;23.04
62611;BMP280;48683;48.084;17.272;2023-08-01T10:37:45;99350.38;;;22.92
62611;BMP280;48683;48.084;17.272;2023-08-01T10:40:13;99349.91;;;22.94
62611;BMP280;48683;48.084;17.272;2023-08-01T10:42:39;99363.88;;;23.01
62611;BMP280;48683;48.084;17.272;2023-08-01T10:45:04;99358.63;;;22.98
62611;BMP280;48683;48.084;17.272;2023-08-01T10:47:30;99355.91;;;23.03
62611;BMP280;48683;48.084;17.272;2023-08-01T10:49:56;99357.22;;;23.13
62611;BMP280;48683;48.084;17.272;2023-08-01T10:52:22;99352.50;;;23.19
62611;BMP280;48683;48.084;17.272;2023-08-01T10:55:02;99354.28;;;23.23
62611;BMP280;48683;48.084;17.272;2023-08-01T10:57:28;99365.03;;;23.37
62611;BMP280;48683;48.084;17.272;2023-08-01T10:59:54;99366.53;;;23.38
62611;BMP280;48683;48.084;17.272;2023-08-01T11:02:20;99360.81;;;23.42
62611;BMP280;48683;48.084;17.272;2023-08-01T11:04:56;99354.66;;;23.52
62611;BMP280;48683;48.084;17.272;2023-08-01T11:07:21;99351.19;;;23.57
62611;BMP280;48683;48.084;17.272;2023-08-01T11:09:46;99360.38;;;23.54
62611;BMP280;48683;48.084;17.272;2023-08-01T11:12:11;99374.34;;;23.62
62611;BMP280;48683;48.084;17.272;2023-08-01T11:14:37;99364.13;;;23.62
62611;BMP280;48683;48.084;17.272;2023-08-01T11:17:02;99355.91;;;23.62
62611;BMP280;48683;48.084;17.272;2023-08-01T11:19:28;99353.94;;;23.63
62611;BMP280;48683;48.084;17.272;2023-08-01T11:21:54;99341.22;;;23.60
62611;BMP280;48683;48.084;17.272;2023-08-01T11:24:22;99336.97;;;23.48
62611;BMP280;48683;48.084;17.272;2023-08-01T11:26:47;99331.16;;;23.35
62611;BMP280;48683;48.084;17.272;2023-08-01T11:29:13;99338.84;;;23.31
62611;BMP280;48683;48.084;17.272;2023-08-01T11:31:39;99346.34;;;23.36
62611;BMP280;48683;48.084;17.272;2023-08-01T11:34:04;99353.09;;;23.40
62611;BMP280;48683;48.084;17.272;2023-08-01T11:36:30;99352.78;;;23.27
62611;BMP280;48683;48.084;17.272;2023-08-01T11:38:56;99350.22;;;23.12
62611;BMP280;48683;48.084;17.272;2023-08-01T11:41:23;99348.47;;;23.09
62611;BMP280;48683;48.084;17.272;2023-08-01T11:43:48;99351.69;;;23.02
62611;BMP280;48683;48.084;17.272;2023-08-01T11:46:13;99367.16;;;23.11
62611;BMP280;48683;48.084;17.272;2023-08-01T11:48:38;99368.34;;;23.04
62611;BMP280;48683;48.084;17.272;2023-08-01T11:51:04;99366.84;;;23.03
62611;BMP280;48683;48.084;17.272;2023-08-01T11:53:29;99363.38;;;23.03
62611;BMP280;48683;48.084;17.272;2023-08-01T11:55:55;99372.03;;;22.96
62611;BMP280;48683;48.084;17.272;2023-08-01T11:58:28;99367.81;;;22.95
62611;BMP280;48683;48.084;17.272;2023-08-01T12:01:03;99372.25;;;22.87
62611;BMP280;48683;48.084;17.272;2023-08-01T12:03:29;99380.47;;;22.61
62611;BMP280;48683;48.084;17.272;2023-08-01T12:06:06;99387.72;;;22.64
62611;BMP280;48683;48.084;17.272;2023-08-01T12:08:36;99384.06;;;22.73
62611;BMP280;48683;48.084;17.272;2023-08-01T12:11:01;99386.44;;;22.59
62611;BMP280;48683;48.084;17.272;2023-08-01T12:13:27;99380.09;;;22.68
62611;BMP280;48683;48.084;17.272;2023-08-01T12:15:53;99369.16;;;22.68
62611;BMP280;48683;48.084;17.272;2023-08-01T12:18:19;99362.38;;;22.63
62611;BMP280;48683;48.084;17.272;2023-08-01T12:20:44;99357.06;;;22.54
62611;BMP280;48683;48.084;17.272;2023-08-01T12:25:35;99360.13;;;22.31
62611;BMP280;48683;48.084;17.272;2023-08-01T12:28:00;99367.88;;;22.38
62611;BMP280;48683;48.084;17.272;2023-08-01T12:30:25;99366.63;;;22.33
62611;BMP280;48683;48.084;17.272;2023-08-01T12:32:50;99378.69;;;22.21
62611;BMP280;48683;48.084;17.272;2023-08-01T12:35:15;99363.28;;;22.23
62611;BMP280;48683;48.084;17.272;2023-08-01T12:37:41;99361.78;;;22.22
62611;BMP280;48683;48.084;17.272;2023-08-01T12:40:06;99357.22;;;22.08
62611;BMP280;48683;48.084;17.272;2023-08-01T12:42:31;99374.47;;;22.25
62611;BMP280;48683;48.084;17.272;2023-08-01T12:44:56;99379.31;;;22.10
62611;BMP280;48683;48.084;17.272;2023-08-01T12:47:22;99380.22;;;22.28
62611;BMP280;48683;48.084;17.272;2023-08-01T12:49:47;99371.56;;;22.29
62611;BMP280;48683;48.084;17.272;2023-08-01T12:52:21;99378.03;;;22.32
62611;BMP280;48683;48.084;17.272;2023-08-01T12:54:46;99375.78;;;22.30
62611;BMP280;48683;48.084;17.272;2023-08-01T12:57:11;99362.22;;;22.15
62611;BMP280;48683;48.084;17.272;2023-08-01T12:59:37;99341.47;;;21.98
62611;BMP280;48683;48.084;17.272;2023-08-01T13:02:02;99327.66;;;21.87
62611;BMP280;48683;48.084;17.272;2023-08-01T13:04:33;99345.78;;;21.84
62611;BMP280;48683;48.084;17.272;2023-08-01T13:06:58;99345.56;;;21.88
62611;BMP280;48683;48.084;17.272;2023-08-01T13:09:23;99340.59;;;21.86
62611;BMP280;48683;48.084;17.272;2023-08-01T13:11:48;99338.47;;;21.75
62611;BMP280;48683;48.084;17.272;2023-08-01T13:14:14;99349.38;;;21.70
62611;BMP280;48683;48.084;17.272;2023-08-01T13:16:39;99344.31;;;21.63
62611;BMP280;48683;48.084;17.272;2023-08-01T13:19:04;99334.13;;;21.63
62611;BMP280;48683;48.084;17.272;2023-08-01T13:21:29;99324.13;;;21.55
62611;BMP280;48683;48.084;17.272;2023-08-01T13:23:54;99345.31;;;21.40
62611;BMP280;48683;48.084;17.272;2023-08-01T13:26:20;99350.47;;;21.38
62611;BMP280;48683;48.084;17.272;2023-08-01T13:28:45;99360.81;;;21.28
62611;BMP280;48683;48.084;17.272;2023-08-01T13:31:10;99372.38;;;21.23
62611;BMP280;48683;48.084;17.272;2023-08-01T13:33:35;99362.22;;;21.23
62611;BMP280;48683;48.084;17.272;2023-08-01T13:36:00;99358.81;;;21.28
62611;BMP280;48683;48.084;17.272;2023-08-01T13:38:26;99344.47;;;21.13
62611;BMP280;48683;48.084;17.272;2023-08-01T13:40:51;99323.53;;;21.05
62611;BMP280;48683;48.084;17.272;2023-08-01T13:43:16;99300.66;;;20.82
62611;BMP280;48683;48.084;17.272;2023-08-01T13:45:42;99283.13;;;20.68
62611;BMP280;48683;48.084;17.272;2023-08-01T13:48:07;99289.75;;;20.62
62611;BMP280;48683;48.084;17.272;2023-08-01T13:50:32;99294.78;;;20.69